createdAt,value
2018-08-19T00:00:26.471Z,60.20
2018-08-19T00:03:01.707Z,60.60
2018-08-19T00:05:30.275Z,60.90
2018-08-19T00:07:58.776Z,61.40
2018-08-19T00:10:38.868Z,61.30
2018-08-19T00:13:09.595Z,61.40
2018-08-19T00:15:38.447Z,61.70
2018-08-19T00:18:08.242Z,62.00
2018-08-19T00:20:36.760Z,62.50
2018-08-19T00:23:05.348Z,63.00
2018-08-19T00:25:37.287Z,62.80
2018-08-19T00:28:07.595Z,62.70
2018-08-19T00:30:36.109Z,63.20
2018-08-19T00:33:05.072Z,64.20
2018-08-19T00:35:33.545Z,64.40
2018-08-19T00:38:02.460Z,64.40
2018-08-19T00:40:31.123Z,65.00
2018-08-19T00:43:00.151Z,65.40
2018-08-19T00:45:29.130Z,64.70
2018-08-19T00:47:57.611Z,65.40
2018-08-19T00:50:26.277Z,65.10
2018-08-19T00:52:55.396Z,66.00
2018-08-19T00:55:24.464Z,65.80
2018-08-19T00:57:58.211Z,65.60
2018-08-19T01:00:27.995Z,65.80
2018-08-19T01:02:56.461Z,66.70
2018-08-19T01:05:25.071Z,67.20
2018-08-19T01:07:53.580Z,67.00
2018-08-19T01:10:22.104Z,67.20
2018-08-19T01:12:50.547Z,68.50
2018-08-19T01:15:19.071Z,67.30
2018-08-19T01:17:47.515Z,67.90
2018-08-19T01:20:19.991Z,68.30
2018-08-19T01:22:48.514Z,69.50
2018-08-19T01:25:17.203Z,69.30
2018-08-19T01:27:45.791Z,69.40
2018-08-19T01:30:19.651Z,69.40
2018-08-19T01:32:48.412Z,69.40
2018-08-19T01:35:17.176Z,70.00
2018-08-19T01:37:45.708Z,70.90
2018-08-19T01:40:18.847Z,71.30
2018-08-19T01:42:47.768Z,70.90
2018-08-19T01:45:16.219Z,70.50
2018-08-19T01:47:44.656Z,70.30
2018-08-19T01:50:15.155Z,70.90
2018-08-19T01:52:44.384Z,71.30
2018-08-19T01:55:12.899Z,70.90
2018-08-19T01:57:47.459Z,71.20
2018-08-19T02:00:16.763Z,71.80
2018-08-19T02:02:58.727Z,72.90
2018-08-19T02:05:27.219Z,73.50
2018-08-19T02:07:57.748Z,73.40
2018-08-19T02:10:26.970Z,73.60
2018-08-19T02:12:56.457Z,74.30
2018-08-19T02:15:25.955Z,74.20
2018-08-19T02:18:01.423Z,73.70
2018-08-19T02:20:34.047Z,75.50
2018-08-19T02:23:03.599Z,76.90
2018-08-19T02:25:40.279Z,75.10
2018-08-19T02:28:09.808Z,75.90
2018-08-19T02:30:50.830Z,75.90
2018-08-19T02:33:19.544Z,76.90
2018-08-19T02:35:51.643Z,77.60
2018-08-19T02:38:20.196Z,77.80
2018-08-19T02:40:52.092Z,78.90
2018-08-19T02:43:21.192Z,79.50
2018-08-19T02:45:49.714Z,80.40
2018-08-19T02:48:18.332Z,81.20
2018-08-19T02:50:46.796Z,82.50
2018-08-19T02:53:15.293Z,83.20
2018-08-19T02:55:43.781Z,83.60
2018-08-19T02:58:17.421Z,84.80
2018-08-19T03:00:45.926Z,85.20
2018-08-19T03:03:15.306Z,84.80
2018-08-19T03:05:48.037Z,85.40
2018-08-19T03:08:16.538Z,86.30
2018-08-19T03:10:45.173Z,87.20
2018-08-19T03:13:13.654Z,87.70
2018-08-19T03:15:42.174Z,88.90
2018-08-19T03:18:10.917Z,90.10
2018-08-19T03:20:39.408Z,90.60
2018-08-19T03:23:07.929Z,90.90
2018-08-19T03:25:36.433Z,91.30
2018-08-19T03:28:04.976Z,91.40
2018-08-19T03:30:33.461Z,91.90
2018-08-19T03:33:01.966Z,92.60
2018-08-19T03:35:30.472Z,93.00
2018-08-19T03:38:03.266Z,93.50
2018-08-19T03:40:31.668Z,94.00
2018-08-19T03:43:00.161Z,94.60
2018-08-19T03:45:30.821Z,95.40
2018-08-19T03:47:59.348Z,95.90
2018-08-19T03:50:27.854Z,96.60
2018-08-19T03:52:57.195Z,96.80
2018-08-19T03:55:26.357Z,97.10
2018-08-19T03:57:58.292Z,97.60
2018-08-19T04:00:27.728Z,98.40
2018-08-19T04:02:56.229Z,98.80
2018-08-19T04:05:43.668Z,99.20
2018-08-19T04:08:13.265Z,99.60
2018-08-19T04:10:42.957Z,99.90
2018-08-19T04:13:25.937Z,99.90
2018-08-19T04:15:56.502Z,99.90
2018-08-19T04:18:30.356Z,99.90
2018-08-19T04:21:00.223Z,99.90
2018-08-19T04:23:29.359Z,99.90
2018-08-19T04:25:57.854Z,99.90
2018-08-19T04:28:26.381Z,99.90
2018-08-19T04:30:56.025Z,99.90
2018-08-19T04:33:30.763Z,99.90
2018-08-19T04:35:59.321Z,99.90
2018-08-19T04:38:28.713Z,99.90
2018-08-19T04:40:58.876Z,99.90
2018-08-19T04:43:29.387Z,99.90
2018-08-19T04:45:57.941Z,99.90
2018-08-19T04:48:27.457Z,99.90
2018-08-19T04:50:56.982Z,99.90
2018-08-19T04:53:25.938Z,99.90
2018-08-19T04:55:54.761Z,99.90
2018-08-19T04:58:23.729Z,99.90
2018-08-19T05:00:52.245Z,99.90
2018-08-19T05:03:20.723Z,99.90
2018-08-19T05:05:49.233Z,99.90
2018-08-19T05:08:17.795Z,99.90
2018-08-19T05:10:46.226Z,99.90
2018-08-19T05:13:14.716Z,99.90
2018-08-19T05:15:43.601Z,99.90
2018-08-19T05:18:12.113Z,99.90
2018-08-19T05:20:40.579Z,99.90
2018-08-19T05:23:09.127Z,99.90
2018-08-19T05:25:43.855Z,99.90
2018-08-19T05:28:12.454Z,99.90
2018-08-19T05:30:40.929Z,99.90
2018-08-19T05:33:10.904Z,99.90
2018-08-19T05:35:39.536Z,99.90
2018-08-19T05:38:08.095Z,99.90
2018-08-19T05:40:37.064Z,99.90
2018-08-19T05:43:05.659Z,99.90
2018-08-19T05:45:37.824Z,99.90
2018-08-19T05:48:11.813Z,99.90
2018-08-19T05:50:40.289Z,99.90
2018-08-19T05:53:08.813Z,99.90
2018-08-19T05:55:37.380Z,99.90
2018-08-19T05:58:05.796Z,99.90
2018-08-19T06:00:34.394Z,99.90
2018-08-19T06:03:03.288Z,99.90
2018-08-19T06:05:31.794Z,99.90
2018-08-19T06:08:05.552Z,99.90
2018-08-19T06:10:34.045Z,99.90
2018-08-19T06:13:02.590Z,99.90
2018-08-19T06:15:31.150Z,99.90
2018-08-19T06:17:59.649Z,99.90
2018-08-19T06:20:30.576Z,99.90
2018-08-19T06:22:59.200Z,99.90
2018-08-19T06:25:27.794Z,99.90
2018-08-19T06:27:57.633Z,99.90
2018-08-19T06:30:26.220Z,99.90
2018-08-19T06:32:54.693Z,99.90
2018-08-19T06:35:23.281Z,99.90
2018-08-19T06:37:51.761Z,99.90
2018-08-19T06:40:21.801Z,99.90
2018-08-19T06:42:50.313Z,99.90
2018-08-19T06:45:18.910Z,99.90
2018-08-19T06:47:47.567Z,99.90
2018-08-19T06:50:27.309Z,99.90
2018-08-19T06:52:56.285Z,99.90
2018-08-19T06:55:24.933Z,99.90
2018-08-19T06:57:55.752Z,99.90
2018-08-19T07:00:29.271Z,99.90
2018-08-19T07:03:01.668Z,99.90
2018-08-19T07:05:30.409Z,99.90
2018-08-19T07:07:58.957Z,99.40
2018-08-19T07:10:33.034Z,99.40
2018-08-19T07:13:05.544Z,99.80
2018-08-19T07:15:34.844Z,99.30
2018-08-19T07:18:03.721Z,99.70
2018-08-19T07:20:32.453Z,99.50
2018-08-19T07:23:00.967Z,98.80
2018-08-19T07:25:29.681Z,98.70
2018-08-19T07:27:58.197Z,98.50
2018-08-19T07:30:26.705Z,97.80
2018-08-19T07:32:55.209Z,97.00
2018-08-19T07:35:23.704Z,96.90
2018-08-19T07:37:52.192Z,97.20
2018-08-19T07:40:20.660Z,96.50
2018-08-19T07:42:49.248Z,95.50
2018-08-19T07:45:17.736Z,94.70
2018-08-19T07:47:46.280Z,94.20
2018-08-19T07:50:14.761Z,94.50
2018-08-19T07:52:43.277Z,93.30
2018-08-19T07:55:11.830Z,93.10
2018-08-19T07:57:42.239Z,92.40
2018-08-19T08:00:11.653Z,91.00
2018-08-19T08:02:40.181Z,90.30
2018-08-19T08:05:09.937Z,90.20
2018-08-19T08:07:42.865Z,90.20
2018-08-19T08:10:11.368Z,90.20
2018-08-19T08:12:39.840Z,90.40
2018-08-19T08:15:08.712Z,90.90
2018-08-19T08:17:38.508Z,90.60
2018-08-19T08:20:07.871Z,88.40
2018-08-19T08:22:37.305Z,87.60
2018-08-19T08:25:08.252Z,87.20
2018-08-19T08:27:36.765Z,82.00
2018-08-19T08:30:11.028Z,83.10
2018-08-19T08:32:40.368Z,82.00
2018-08-19T08:35:09.320Z,84.20
2018-08-19T08:37:37.892Z,78.00
2018-08-19T08:40:09.161Z,78.10
2018-08-19T08:42:44.273Z,75.60
2018-08-19T08:45:14.019Z,74.90
2018-08-19T08:47:42.789Z,72.40
2018-08-19T08:50:12.400Z,67.40
2018-08-19T08:52:43.749Z,67.50
2018-08-19T08:55:13.464Z,66.60
2018-08-19T08:57:41.964Z,67.60
2018-08-19T09:00:11.848Z,65.40
2018-08-19T09:02:40.317Z,65.60
2018-08-19T09:05:11.189Z,63.70
2018-08-19T09:07:40.644Z,60.10
2018-08-19T09:10:11.169Z,59.20
2018-08-19T09:12:48.062Z,58.60
2018-08-19T09:15:16.633Z,58.60
2018-08-19T09:17:45.163Z,57.50
2018-08-19T09:20:13.821Z,58.00
2018-08-19T09:22:43.941Z,58.20
2018-08-19T09:25:12.722Z,56.60
2018-08-19T09:27:42.048Z,58.30
2018-08-19T09:30:20.463Z,54.00
2018-08-19T09:33:02.429Z,54.40
2018-08-19T09:35:33.193Z,53.60
2018-08-19T09:38:07.166Z,52.20
2018-08-19T09:40:36.130Z,49.20
2018-08-19T09:43:05.473Z,48.70
2018-08-19T09:45:34.017Z,49.60
2018-08-19T09:48:03.465Z,49.30
2018-08-19T09:50:32.581Z,49.20
2018-08-19T09:53:01.109Z,47.60
2018-08-19T09:55:33.797Z,47.80
2018-08-19T09:58:02.389Z,46.70
2018-08-19T10:00:36.293Z,46.40
2018-08-19T10:03:04.860Z,45.50
2018-08-19T10:05:34.824Z,44.60
2018-08-19T10:08:03.368Z,44.80
2018-08-19T10:10:34.649Z,44.30
2018-08-19T10:13:03.356Z,42.70
2018-08-19T10:15:31.868Z,42.10
2018-08-19T10:18:00.409Z,40.60
2018-08-19T10:20:28.914Z,39.60
2018-08-19T10:22:58.065Z,38.70
2018-08-19T10:25:26.571Z,38.90
2018-08-19T10:27:56.196Z,36.90
2018-08-19T10:30:24.749Z,36.60
2018-08-19T10:32:59.850Z,36.50
2018-08-19T10:35:29.208Z,34.20
2018-08-19T10:37:58.017Z,33.60
2018-08-19T10:40:26.512Z,33.80
2018-08-19T10:43:01.885Z,33.70
2018-08-19T10:45:30.421Z,32.90
2018-08-19T10:47:58.933Z,31.90
2018-08-19T10:50:29.737Z,31.40
2018-08-19T10:52:58.245Z,30.60
2018-08-19T10:55:27.447Z,32.00
2018-08-19T10:57:55.961Z,32.30
2018-08-19T11:00:31.451Z,32.00
2018-08-19T11:03:05.937Z,31.90
2018-08-19T11:05:38.405Z,30.90
2018-08-19T11:08:07.001Z,30.60
2018-08-19T11:10:35.505Z,30.90
2018-08-19T11:13:04.077Z,29.90
2018-08-19T11:15:52.545Z,29.60
2018-08-19T11:18:33.218Z,30.00
2018-08-19T11:21:09.440Z,28.80
2018-08-19T11:23:39.341Z,27.90
2018-08-19T11:26:08.405Z,27.20
2018-08-19T11:28:39.101Z,25.90
2018-08-19T11:31:15.688Z,24.70
2018-08-19T11:33:44.505Z,24.60
2018-08-19T11:36:13.069Z,23.90
2018-08-19T11:38:42.339Z,23.50
2018-08-19T11:41:11.756Z,22.80
2018-08-19T11:43:41.971Z,22.40
2018-08-19T11:46:10.673Z,22.20
2018-08-19T11:48:40.000Z,22.30
2018-08-19T11:51:08.765Z,22.20
2018-08-19T11:53:37.303Z,21.70
2018-08-19T11:56:06.233Z,21.70
2018-08-19T11:58:41.941Z,21.90
2018-08-19T12:01:15.773Z,21.60
2018-08-19T12:03:56.745Z,20.90
2018-08-19T12:06:26.493Z,20.90
2018-08-19T12:08:57.021Z,21.20
2018-08-19T12:11:28.884Z,21.00
2018-08-19T12:13:57.448Z,20.60
2018-08-19T12:16:27.151Z,20.30
2018-08-19T12:18:57.042Z,20.10
2018-08-19T12:21:25.589Z,20.20
2018-08-19T12:24:09.509Z,21.10
2018-08-19T12:26:42.609Z,20.80
2018-08-19T12:29:11.372Z,20.40
2018-08-19T12:31:39.853Z,20.20
2018-08-19T12:34:08.389Z,19.70
2018-08-19T12:36:36.865Z,19.50
2018-08-19T12:39:07.852Z,19.40
2018-08-19T12:41:42.545Z,19.10
2018-08-19T12:44:11.057Z,18.70
2018-08-19T12:46:39.644Z,19.00
2018-08-19T12:49:08.144Z,19.30
2018-08-19T12:51:36.625Z,19.50
2018-08-19T12:54:05.152Z,19.30
2018-08-19T12:56:33.661Z,19.60
2018-08-19T12:59:02.233Z,19.30
2018-08-19T13:01:30.701Z,20.20
2018-08-19T13:03:59.196Z,21.40
2018-08-19T13:06:27.677Z,21.50
2018-08-19T13:08:56.177Z,22.50
2018-08-19T13:11:24.705Z,22.80
2018-08-19T13:13:53.237Z,23.00
2018-08-19T13:16:21.732Z,23.40
2018-08-19T13:18:50.240Z,24.20
2018-08-19T13:21:18.983Z,24.60
2018-08-19T13:23:47.474Z,25.00
2018-08-19T13:26:15.961Z,25.10
2018-08-19T13:28:49.124Z,25.80
2018-08-19T13:31:21.816Z,25.00
2018-08-19T13:33:50.317Z,24.90
2018-08-19T13:36:18.822Z,25.10
2018-08-19T13:38:47.293Z,24.90
2018-08-19T13:41:15.788Z,24.90
2018-08-19T13:43:44.260Z,24.40
2018-08-19T13:46:12.745Z,24.00
2018-08-19T13:48:41.249Z,22.80
2018-08-19T13:51:09.753Z,22.60
2018-08-19T13:53:38.248Z,22.50
2018-08-19T13:56:07.140Z,22.40
2018-08-19T13:58:35.633Z,22.30
2018-08-19T14:01:04.593Z,22.50
2018-08-19T14:03:33.069Z,22.00
2018-08-19T14:06:01.560Z,22.10
2018-08-19T14:08:30.057Z,22.10
2018-08-19T14:10:58.540Z,22.80
2018-08-19T14:13:27.053Z,23.10
2018-08-19T14:15:55.545Z,23.80
2018-08-19T14:18:24.036Z,24.20
2018-08-19T14:20:52.525Z,24.70
2018-08-19T14:23:21.049Z,25.40
2018-08-19T14:25:49.540Z,25.50
2018-08-19T14:28:18.033Z,25.60
2018-08-19T14:30:46.581Z,26.00
2018-08-19T14:33:15.073Z,26.60
2018-08-19T14:35:43.565Z,26.70
2018-08-19T14:38:12.093Z,26.90
2018-08-19T14:40:40.633Z,27.50
2018-08-19T14:43:09.152Z,28.10
2018-08-19T14:45:37.656Z,28.50
2018-08-19T14:48:06.201Z,28.80
2018-08-19T14:50:34.721Z,29.00
2018-08-19T14:53:03.273Z,29.10
2018-08-19T14:55:31.770Z,29.50
2018-08-19T14:58:00.245Z,29.20
2018-08-19T15:00:28.775Z,29.40
2018-08-19T15:02:57.256Z,28.90
2018-08-19T15:05:25.789Z,29.30
2018-08-19T15:07:54.272Z,29.10
2018-08-19T15:10:24.813Z,28.90
2018-08-19T15:12:53.885Z,28.80
2018-08-19T15:15:22.448Z,29.20
2018-08-19T15:17:56.289Z,29.70
2018-08-19T15:20:30.508Z,29.80
2018-08-19T15:23:16.165Z,30.00
2018-08-19T15:25:44.972Z,30.60
2018-08-19T15:28:13.532Z,31.30
2018-08-19T15:30:42.537Z,32.00
2018-08-19T15:33:12.055Z,32.30
2018-08-19T15:35:40.817Z,32.50
2018-08-19T15:38:09.536Z,32.90
2018-08-19T15:40:48.257Z,33.00
2018-08-19T15:43:16.797Z,33.50
2018-08-19T15:45:45.712Z,33.80
2018-08-19T15:48:14.220Z,33.60
2018-08-19T15:50:42.732Z,33.70
2018-08-19T15:53:11.357Z,34.60
2018-08-19T15:55:40.171Z,33.90
2018-08-19T15:58:08.701Z,34.60
2018-08-19T16:00:39.696Z,34.10
2018-08-19T16:03:09.401Z,34.20
2018-08-19T16:05:37.932Z,33.80
2018-08-19T16:08:06.877Z,33.60
2018-08-19T16:10:35.359Z,33.80
2018-08-19T16:13:06.870Z,33.80
2018-08-19T16:15:35.400Z,33.50
2018-08-19T16:18:04.313Z,33.70
2018-08-19T16:20:32.832Z,34.00
2018-08-19T16:23:01.404Z,34.10
2018-08-19T16:25:29.899Z,34.20
2018-08-19T16:27:58.380Z,34.30
2018-08-19T16:30:26.886Z,34.20
2018-08-19T16:32:55.373Z,34.00
2018-08-19T16:35:23.898Z,34.20
2018-08-19T16:37:52.400Z,34.30
2018-08-19T16:40:20.908Z,34.70
2018-08-19T16:42:49.425Z,34.80
2018-08-19T16:45:17.953Z,35.10
2018-08-19T16:47:46.449Z,34.60
2018-08-19T16:50:15.045Z,34.70
2018-08-19T16:52:43.472Z,34.80
2018-08-19T16:55:11.932Z,35.00
2018-08-19T16:57:40.437Z,35.00
2018-08-19T17:00:09.793Z,35.10
2018-08-19T17:02:38.369Z,35.30
2018-08-19T17:05:15.745Z,35.60
2018-08-19T17:07:44.257Z,35.70
2018-08-19T17:10:12.894Z,36.00
2018-08-19T17:12:41.285Z,35.90
2018-08-19T17:15:09.823Z,36.10
2018-08-19T17:17:38.326Z,35.90
2018-08-19T17:20:06.825Z,35.70
2018-08-19T17:22:35.473Z,36.00
2018-08-19T17:25:04.025Z,36.50
2018-08-19T17:27:32.511Z,36.60
2018-08-19T17:30:01.097Z,36.80
2018-08-19T17:32:29.663Z,36.80
2018-08-19T17:34:58.125Z,36.90
2018-08-19T17:37:26.644Z,37.00
2018-08-19T17:39:55.246Z,37.10
2018-08-19T17:42:23.660Z,37.40
2018-08-19T17:44:52.152Z,37.80
2018-08-19T17:47:20.638Z,38.10
2018-08-19T17:49:49.263Z,38.20
2018-08-19T17:52:17.844Z,38.10
2018-08-19T17:54:46.277Z,38.30
2018-08-19T17:57:14.886Z,38.60
2018-08-19T17:59:43.500Z,38.80
2018-08-19T18:02:11.886Z,39.10
2018-08-19T18:04:47.033Z,39.10
2018-08-19T18:07:19.646Z,39.00
2018-08-19T18:09:53.233Z,38.90
2018-08-19T18:12:21.941Z,39.00
2018-08-19T18:14:50.499Z,39.20
2018-08-19T18:17:18.956Z,39.60
2018-08-19T18:19:47.445Z,39.70
2018-08-19T18:22:18.598Z,39.70
2018-08-19T18:24:51.272Z,39.80
2018-08-19T18:27:20.542Z,39.90
2018-08-19T18:29:49.500Z,40.10
2018-08-19T18:32:18.009Z,40.30
2018-08-19T18:34:46.473Z,40.50
2018-08-19T18:37:14.989Z,40.50
2018-08-19T18:39:43.968Z,40.80
2018-08-19T18:42:46.602Z,40.70
2018-08-19T18:45:15.453Z,40.90
2018-08-19T18:47:50.048Z,41.10
2018-08-19T18:50:20.352Z,41.20
2018-08-19T18:52:48.857Z,41.30
2018-08-19T18:55:17.340Z,41.50
2018-08-19T18:57:51.914Z,41.50
2018-08-19T19:00:22.101Z,42.30
2018-08-19T19:02:53.373Z,41.80
2018-08-19T19:05:38.213Z,42.00
2018-08-19T19:08:09.480Z,41.80
2018-08-19T19:10:38.457Z,42.00
2018-08-19T19:13:07.024Z,42.30
2018-08-19T19:15:38.416Z,42.70
2018-08-19T19:18:08.829Z,42.30
2018-08-19T19:20:41.753Z,42.70
2018-08-19T19:23:11.877Z,42.90
2018-08-19T19:25:40.933Z,42.80
2018-08-19T19:28:09.431Z,42.90
2018-08-19T19:30:37.933Z,43.10
2018-08-19T19:33:11.528Z,43.20
2018-08-19T19:35:40.069Z,43.40
2018-08-19T19:38:09.105Z,43.40
2018-08-19T19:40:37.773Z,43.70
2018-08-19T19:43:06.393Z,44.10
2018-08-19T19:45:41.404Z,44.20
2018-08-19T19:48:10.549Z,44.40
2018-08-19T19:50:39.033Z,44.80
2018-08-19T19:53:07.565Z,44.50
2018-08-19T19:55:36.045Z,44.60
2018-08-19T19:58:04.612Z,44.90
2018-08-19T20:00:54.265Z,45.30
2018-08-19T20:03:23.710Z,45.30
2018-08-19T20:05:52.197Z,45.50
2018-08-19T20:08:26.306Z,45.60
2018-08-19T20:10:54.788Z,46.00
2018-08-19T20:13:23.288Z,46.30
2018-08-19T20:15:51.773Z,46.50
2018-08-19T20:18:20.293Z,46.80
2018-08-19T20:20:48.792Z,46.80
2018-08-19T20:23:22.525Z,47.10
2018-08-19T20:25:51.013Z,47.10
2018-08-19T20:28:19.568Z,47.50
2018-08-19T20:30:48.049Z,47.60
2018-08-19T20:33:25.811Z,47.70
2018-08-19T20:35:54.924Z,47.80
2018-08-19T20:38:23.717Z,48.00
2018-08-19T20:40:52.280Z,48.20
2018-08-19T20:43:21.610Z,48.30
2018-08-19T20:45:50.113Z,48.40
2018-08-19T20:48:20.684Z,48.70
2018-08-19T20:50:49.633Z,49.00
2018-08-19T20:53:18.496Z,49.20
2018-08-19T20:55:47.313Z,49.50
2018-08-19T20:58:15.809Z,50.00
2018-08-19T21:00:44.329Z,50.30
2018-08-19T21:03:12.801Z,50.50
2018-08-19T21:05:41.308Z,50.60
2018-08-19T21:08:12.872Z,50.80
2018-08-19T21:10:42.777Z,51.40
2018-08-19T21:13:13.534Z,51.70
2018-08-19T21:15:46.296Z,52.20
2018-08-19T21:18:14.800Z,51.70
2018-08-19T21:20:43.771Z,52.20
2018-08-19T21:23:12.283Z,52.20
2018-08-19T21:25:50.257Z,52.60
2018-08-19T21:28:19.452Z,52.70
2018-08-19T21:30:47.974Z,53.70
2018-08-19T21:33:16.471Z,52.90
2018-08-19T21:35:49.856Z,53.20
2018-08-19T21:38:18.454Z,53.20
2018-08-19T21:40:46.989Z,53.80
2018-08-19T21:43:15.484Z,54.00
2018-08-19T21:45:43.992Z,54.00
2018-08-19T21:48:14.717Z,53.90
2018-08-19T21:50:43.377Z,53.90
2018-08-19T21:53:14.129Z,53.80
2018-08-19T21:55:45.873Z,54.20
2018-08-19T21:58:14.401Z,54.90
2018-08-19T22:00:47.806Z,54.20
2018-08-19T22:03:22.261Z,54.50
2018-08-19T22:05:51.989Z,54.60
2018-08-19T22:08:22.129Z,54.80
2018-08-19T22:10:50.629Z,55.10
2018-08-19T22:13:19.220Z,55.30
2018-08-19T22:15:48.165Z,55.70
2018-08-19T22:18:20.904Z,55.90
2018-08-19T22:21:07.895Z,56.30
2018-08-19T22:23:43.877Z,55.90
2018-08-19T22:26:13.628Z,56.10
2018-08-19T22:28:42.481Z,56.40
2018-08-19T22:31:22.573Z,56.60
2018-08-19T22:33:52.508Z,56.80
2018-08-19T22:36:21.385Z,57.10
2018-08-19T22:38:50.600Z,57.60
2018-08-19T22:41:22.346Z,57.00
2018-08-19T22:43:51.152Z,57.20
2018-08-19T22:46:19.692Z,57.10
2018-08-19T22:48:48.168Z,57.60
2018-08-19T22:51:16.657Z,57.50
2018-08-19T22:53:45.169Z,57.70
2018-08-19T22:56:13.657Z,57.90
2018-08-19T22:58:42.125Z,58.10
2018-08-19T23:01:10.705Z,58.10
2018-08-19T23:03:39.198Z,58.50
2018-08-19T23:06:07.716Z,58.40
2018-08-19T23:08:36.204Z,58.40
2018-08-19T23:11:05.188Z,58.60
2018-08-19T23:13:44.944Z,58.90
2018-08-19T23:16:13.686Z,59.60
2018-08-19T23:18:42.989Z,59.30
2018-08-19T23:21:11.800Z,59.70
2018-08-19T23:23:40.312Z,60.00
2018-08-19T23:26:08.788Z,60.20
2018-08-19T23:28:37.292Z,60.70
2018-08-19T23:31:05.808Z,61.00
2018-08-19T23:33:34.320Z,61.50
2018-08-19T23:36:02.798Z,62.20
2018-08-19T23:38:31.297Z,62.40
2018-08-19T23:40:59.801Z,62.50
2018-08-19T23:43:28.322Z,63.10
2018-08-19T23:45:56.882Z,63.10
2018-08-19T23:48:25.393Z,63.40
2018-08-19T23:50:53.888Z,63.80
2018-08-19T23:53:22.404Z,64.20
2018-08-19T23:55:50.924Z,64.60
2018-08-19T23:58:19.409Z,64.90
